| time (UTC) | temp C | wind direction | speed KPH | gust KPH | rain 1hr cm | rain 24hr cm | rain mn cm | humidity % | barometer mb |
| 20260509004521 | 10 | 0 | 0.0 | 0.0 | 320.42 | 0.00 | 0.00 | 55 | 1011.9 |
| 20260509003519 | 10 | 0 | 0.0 | 0.0 | 320.42 | 0.00 | 0.00 | 53 | 1011.7 |
| 20260509003020 | 10 | 0 | 0.0 | 0.0 | 320.42 | 0.00 | 0.00 | 53 | 1011.6 |
| 20260509002519 | 11 | 0 | 0.0 | 0.0 | 320.42 | 0.00 | 0.00 | 51 | 1011.5 |
| 20260509002019 | 11 | 0 | 0.0 | 0.0 | 320.42 | 0.00 | 0.00 | 49 | 1011.4 |
| 20260509001520 | 11 | 0 | 0.0 | 0.0 | 320.42 | 0.00 | 0.00 | 49 | 1011.5 |
| 20260509001019 | 11 | 0 | 0.0 | 0.0 | 320.42 | 0.00 | 0.00 | 48 | 1011.5 |
| 20260509000519 | 11 | 0 | 0.0 | 0.0 | 320.42 | 0.00 | 0.00 | 47 | 1011.4 |
| 20260508235519 | 12 | 281 | 1.6 | 3.2 | 320.42 | 0.00 | 0.00 | 46 | 1011.1 |
| 20260508235019 | 12 | 305 | 1.6 | 11.3 | 320.42 | 0.00 | 0.00 | 45 | 1011.1 |
| 20260508234524 | 12 | 280 | 6.4 | 14.5 | 320.42 | 0.00 | 0.00 | 45 | 1011.0 |
| 20260508234019 | 12 | 284 | 4.8 | 14.5 | 320.42 | 0.00 | 0.00 | 43 | 1010.8 |
| 20260508233019 | 12 | 333 | 4.8 | 14.5 | 320.42 | 0.00 | 0.00 | 41 | 1010.8 |
| 20260508232519 | 12 | 311 | 8.0 | 14.5 | 320.42 | 0.00 | 0.00 | 39 | 1010.7 |
| 20260508232019 | 13 | 290 | 6.4 | 12.9 | 320.42 | 0.00 | 0.00 | 39 | 1010.6 |
| 20260508231519 | 13 | 280 | 1.6 | 16.1 | 320.42 | 0.00 | 0.00 | 38 | 1010.5 |
| 20260508231019 | 13 | 271 | 6.4 | 14.5 | 320.42 | 0.00 | 0.00 | 38 | 1010.4 |
| 20260508230519 | 13 | 293 | 4.8 | 6.4 | 320.42 | 0.00 | 0.00 | 36 | 1010.3 |
| 20260508230019 | 13 | 270 | 4.8 | 12.9 | 320.42 | 0.00 | 0.00 | 36 | 1010.2 |
| 20260508225519 | 13 | 288 | 8.0 | 22.5 | 320.42 | 0.00 | 0.00 | 35 | 1010.2 |
| 20260508225019 | 13 | 291 | 6.4 | 24.1 | 320.42 | 0.00 | 0.00 | 34 | 1010.1 |
| 20260508224519 | 13 | 277 | 11.3 | 16.1 | 320.42 | 0.00 | 0.00 | 34 | 1010.0 |
| 20260508224020 | 14 | 284 | 3.2 | 16.1 | 320.42 | 0.00 | 0.00 | 36 | 1010.0 |
| 20260508223519 | 14 | 274 | 11.3 | 17.7 | 320.42 | 0.00 | 0.00 | 34 | 1009.9 |
| 20260508223019 | 14 | 298 | 11.3 | 17.7 | 320.42 | 0.00 | 0.00 | 34 | 1010.0 |
| 20260508222519 | 14 | 280 | 6.4 | 22.5 | 320.42 | 0.00 | 0.00 | 35 | 1009.9 |
| 20260508222019 | 14 | 284 | 12.9 | 20.9 | 320.42 | 0.00 | 0.00 | 35 | 1009.9 |
| 20260508221519 | 14 | 291 | 9.7 | 17.7 | 320.42 | 0.00 | 0.00 | 36 | 1009.9 |
| 20260508221019 | 14 | 259 | 11.3 | 24.1 | 320.42 | 0.00 | 0.00 | 36 | 1009.8 |
| 20260508220519 | 14 | 309 | 14.5 | 22.5 | 320.42 | 0.00 | 0.00 | 38 | 1009.9 |
| 20260508220019 | 14 | 288 | 11.3 | 22.5 | 320.42 | 0.00 | 0.00 | 36 | 1009.8 |
| 20260508215519 | 13 | 287 | 9.7 | 16.1 | 320.42 | 0.00 | 0.00 | 36 | 1009.8 |
| 20260508215019 | 13 | 281 | 4.8 | 19.3 | 320.42 | 0.00 | 0.00 | 37 | 1009.8 |
| 20260508214519 | 13 | 274 | 9.7 | 24.1 | 320.42 | 0.00 | 0.00 | 36 | 1009.8 |
| 20260508214019 | 13 | 276 | 3.2 | 19.3 | 320.42 | 0.00 | 0.00 | 40 | 1009.8 |
| 20260508213519 | 13 | 284 | 6.4 | 14.5 | 320.42 | 0.00 | 0.00 | 37 | 1009.8 |
| 20260508213019 | 13 | 291 | 4.8 | 19.3 | 320.42 | 0.00 | 0.00 | 38 | 1009.8 |
| 20260508212519 | 14 | 280 | 8.0 | 20.9 | 320.42 | 0.00 | 0.00 | 36 | 1009.7 |
| 20260508212019 | 14 | 264 | 12.9 | 19.3 | 320.42 | 0.00 | 0.00 | 36 | 1009.7 |
| 20260508211519 | 15 | 277 | 6.4 | 20.9 | 320.42 | 0.00 | 0.00 | 35 | 1009.7 |
| 20260508211019 | 15 | 257 | 12.9 | 19.3 | 320.42 | 0.00 | 0.00 | 31 | 1009.5 |
| 20260508210519 | 15 | 270 | 6.4 | 16.1 | 320.42 | 0.00 | 0.00 | 36 | 1009.5 |
| 20260508210019 | 15 | 297 | 4.8 | 20.9 | 320.42 | 0.00 | 0.00 | 37 | 1009.5 |
| 20260508205519 | 15 | 278 | 16.1 | 22.5 | 320.42 | 0.00 | 0.00 | 32 | 1009.4 |
| 20260508205019 | 15 | 285 | 6.4 | 17.7 | 320.42 | 0.00 | 0.00 | 34 | 1009.4 |
| 20260508204519 | 14 | 295 | 6.4 | 22.5 | 320.42 | 0.00 | 0.00 | 34 | 1009.4 |
| 20260508204019 | 15 | 271 | 9.7 | 27.4 | 320.42 | 0.00 | 0.00 | 34 | 1009.4 |
| 20260508203019 | 15 | 262 | 9.7 | 22.5 | 320.42 | 0.00 | 0.00 | 33 | 1009.3 |
| 20260508202519 | 14 | 285 | 4.8 | 20.9 | 320.42 | 0.00 | 0.00 | 37 | 1009.3 |
| 20260508202019 | 14 | 290 | 12.9 | 16.1 | 320.42 | 0.00 | 0.00 | 35 | 1009.3 |
| 20260508201519 | 15 | 270 | 8.0 | 25.7 | 320.42 | 0.00 | 0.00 | 34 | 1009.2 |
| 20260508201019 | 15 | 312 | 12.9 | 22.5 | 320.42 | 0.00 | 0.00 | 32 | 1009.2 |
| 20260508200518 | 15 | 302 | 4.8 | 17.7 | 320.42 | 0.00 | 0.00 | 35 | 1009.1 |
| 20260508200019 | 15 | 301 | 9.7 | 29.0 | 320.42 | 0.00 | 0.00 | 34 | 1009.1 |
| 20260508195518 | 15 | 287 | 3.2 | 17.7 | 320.42 | 0.00 | 0.00 | 37 | 1009.2 |
| 20260508195018 | 15 | 288 | 0.0 | 16.1 | 320.42 | 0.00 | 0.00 | 37 | 1009.2 |
| 20260508194519 | 15 | 139 | 9.7 | 17.7 | 320.42 | 0.00 | 0.00 | 36 | 1009.2 |
| 20260508194018 | 15 | 283 | 9.7 | 20.9 | 320.42 | 0.00 | 0.00 | 34 | 1009.3 |
| 20260508193518 | 15 | 273 | 14.5 | 17.7 | 320.42 | 0.00 | 0.00 | 34 | 1009.3 |
| 20260508193019 | 15 | 284 | 8.0 | 20.9 | 320.42 | 0.00 | 0.00 | 36 | 1009.2 |
| 20260508192518 | 15 | 278 | 4.8 | 25.7 | 320.42 | 0.00 | 0.00 | 35 | 1009.3 |
| 20260508192018 | 15 | 257 | 11.3 | 20.9 | 320.42 | 0.00 | 0.00 | 35 | 1009.3 |
| 20260508191520 | 15 | 276 | 12.9 | 24.1 | 320.42 | 0.00 | 0.00 | 36 | 1009.4 |
| 20260508191018 | 15 | 285 | 12.9 | 20.9 | 320.42 | 0.00 | 0.00 | 37 | 1009.5 |
| 20260508190518 | 15 | 267 | 9.7 | 25.7 | 320.42 | 0.00 | 0.00 | 40 | 1009.6 |
| 20260508185518 | 14 | 281 | 14.5 | 30.6 | 320.42 | 0.00 | 0.00 | 35 | 1009.5 |
| 20260508185018 | 14 | 280 | 11.3 | 24.1 | 320.42 | 0.00 | 0.00 | 35 | 1009.5 |
| 20260508184519 | 14 | 287 | 8.0 | 24.1 | 320.42 | 0.00 | 0.00 | 38 | 1009.5 |
| 20260508184018 | 14 | 284 | 12.9 | 20.9 | 320.42 | 0.00 | 0.00 | 37 | 1009.5 |
| 20260508183518 | 14 | 287 | 6.4 | 14.5 | 320.42 | 0.00 | 0.00 | 35 | 1009.4 |
| 20260508183019 | 14 | 307 | 6.4 | 29.0 | 320.42 | 0.00 | 0.00 | 36 | 1009.4 |
| 20260508182518 | 14 | 288 | 8.0 | 22.5 | 320.42 | 0.00 | 0.00 | 34 | 1009.3 |
| 20260508182018 | 15 | 298 | 8.0 | 19.3 | 320.42 | 0.00 | 0.00 | 33 | 1009.3 |
| 20260508181554 | 15 | 287 | 6.4 | 24.1 | 320.42 | 0.00 | 0.00 | 34 | 1009.2 |
| 20260508181519 | 15 | 287 | 6.4 | 24.1 | 320.42 | 0.00 | 0.00 | 34 | 1009.2 |
| 20260508181018 | 15 | 280 | 16.1 | 17.7 | 320.42 | 0.00 | 0.00 | 32 | 1009.2 |
| 20260508180518 | 15 | 281 | 11.3 | 24.1 | 320.42 | 0.00 | 0.00 | 32 | 1009.2 |
| 20260508180019 | 14 | 294 | 9.7 | 16.1 | 320.42 | 0.00 | 0.00 | 35 | 1009.2 |
| 20260508175518 | 13 | 290 | 11.3 | 25.7 | 320.42 | 0.00 | 0.00 | 37 | 1009.2 |
| 20260508175018 | 13 | 285 | 9.7 | 27.4 | 320.42 | 0.00 | 0.00 | 36 | 1009.2 |
| 20260508174523 | 14 | 277 | 9.7 | 27.4 | 320.42 | 0.00 | 0.00 | 35 | 1009.2 |
| 20260508174018 | 14 | 300 | 8.0 | 12.9 | 320.42 | 0.00 | 0.00 | 37 | 1009.3 |
| 20260508173518 | 14 | 283 | 8.0 | 22.5 | 320.42 | 0.00 | 0.00 | 37 | 1009.3 |
| 20260508173019 | 13 | 271 | 6.4 | 24.1 | 320.42 | 0.00 | 0.00 | 39 | 1009.3 |
| 20260508172518 | 13 | 271 | 11.3 | 14.5 | 320.42 | 0.00 | 0.00 | 39 | 1009.3 |
| 20260508171519 | 13 | 278 | 12.9 | 22.5 | 320.42 | 0.00 | 0.00 | 37 | 1009.3 |
| 20260508171018 | 14 | 266 | 11.3 | 20.9 | 320.42 | 0.00 | 0.00 | 39 | 1009.4 |
| 20260508170019 | 14 | 290 | 12.9 | 22.5 | 320.42 | 0.00 | 0.00 | 37 | 1009.3 |
| 20260508165518 | 14 | 302 | 6.4 | 37.0 | 320.42 | 0.00 | 0.00 | 41 | 1009.3 |
| 20260508165018 | 15 | 233 | 17.7 | 32.2 | 320.42 | 0.00 | 0.00 | 35 | 1009.3 |
| 20260508164519 | 14 | 290 | 11.3 | 25.7 | 320.42 | 0.00 | 0.00 | 38 | 1009.3 |
| 20260508163518 | 14 | 287 | 8.0 | 20.9 | 320.42 | 0.00 | 0.00 | 40 | 1009.3 |
| 20260508163019 | 14 | 271 | 6.4 | 24.1 | 320.42 | 0.00 | 0.00 | 39 | 1009.4 |
| 20260508162518 | 14 | 278 | 8.0 | 24.1 | 320.42 | 0.00 | 0.00 | 39 | 1009.3 |
| 20260508161519 | 13 | 285 | 12.9 | 25.7 | 320.42 | 0.00 | 0.00 | 40 | 1009.2 |
| 20260508161019 | 13 | 304 | 9.7 | 24.1 | 320.42 | 0.00 | 0.00 | 38 | 1009.2 |
| 20260508160518 | 13 | 288 | 12.9 | 17.7 | 320.42 | 0.00 | 0.00 | 39 | 1009.2 |
| 20260508160019 | 13 | 298 | 8.0 | 16.1 | 320.42 | 0.00 | 0.00 | 42 | 1009.3 |
| 20260508155518 | 13 | 288 | 4.8 | 16.1 | 320.42 | 0.00 | 0.00 | 41 | 1009.3 |
| 20260508155018 | 13 | 293 | 11.3 | 20.9 | 320.42 | 0.00 | 0.00 | 39 | 1009.5 |
| 20260508154519 | 13 | 287 | 4.8 | 24.1 | 320.42 | 0.00 | 0.00 | 42 | 1009.5 |
| 20260508154018 | 13 | 236 | 6.4 | 24.1 | 320.42 | 0.00 | 0.00 | 42 | 1009.6 |
| 20260508153518 | 13 | 260 | 11.3 | 22.5 | 320.42 | 0.00 | 0.00 | 42 | 1009.7 |
| 20260508153019 | 13 | 257 | 14.5 | 25.7 | 320.42 | 0.00 | 0.00 | 40 | 1009.7 |
| 20260508152518 | 13 | 252 | 12.9 | 19.3 | 320.42 | 0.00 | 0.00 | 42 | 1009.7 |
| 20260508152018 | 13 | 302 | 9.7 | 16.1 | 320.42 | 0.00 | 0.00 | 40 | 1009.8 |
| 20260508151519 | 13 | 304 | 11.3 | 20.9 | 320.42 | 0.00 | 0.00 | 40 | 1009.7 |
| 20260508151018 | 13 | 277 | 11.3 | 17.7 | 320.42 | 0.00 | 0.00 | 42 | 1009.7 |
| 20260508150518 | 13 | 293 | 9.7 | 27.4 | 320.42 | 0.00 | 0.00 | 41 | 1009.7 |
| 20260508150019 | 12 | 278 | 12.9 | 24.1 | 320.42 | 0.00 | 0.00 | 41 | 1009.6 |
| 20260508145518 | 12 | 273 | 3.2 | 24.1 | 320.42 | 0.00 | 0.00 | 42 | 1009.7 |
| 20260508145018 | 12 | 293 | 11.3 | 22.5 | 320.42 | 0.00 | 0.00 | 41 | 1009.8 |
| 20260508144519 | 12 | 278 | 8.0 | 27.4 | 320.42 | 0.00 | 0.00 | 45 | 1009.9 |
| 20260508144018 | 12 | 307 | 6.4 | 16.1 | 320.42 | 0.00 | 0.00 | 43 | 1009.9 |
| 20260508143518 | 12 | 270 | 11.3 | 17.7 | 320.42 | 0.00 | 0.00 | 42 | 1010.0 |
| 20260508143055 | 12 | 253 | 9.7 | 17.7 | 320.42 | 0.00 | 0.00 | 42 | 1010.0 |
| 20260508143019 | 12 | 253 | 9.7 | 17.7 | 320.42 | 0.00 | 0.00 | 42 | 1010.0 |
| 20260508142518 | 12 | 297 | 4.8 | 24.1 | 320.42 | 0.00 | 0.00 | 46 | 1010.2 |
| 20260508142018 | 11 | 273 | 14.5 | 16.1 | 320.42 | 0.00 | 0.00 | 44 | 1010.3 |
| 20260508141519 | 11 | 314 | 3.2 | 14.5 | 320.42 | 0.00 | 0.00 | 46 | 1010.1 |
| 20260508141018 | 11 | 295 | 6.4 | 24.1 | 320.42 | 0.00 | 0.00 | 41 | 1010.2 |
| 20260508140023 | 11 | 297 | 11.3 | 19.3 | 320.42 | 0.00 | 0.00 | 44 | 1010.2 |
| 20260508135518 | 11 | 295 | 11.3 | 27.4 | 320.42 | 0.00 | 0.00 | 43 | 1010.3 |
| 20260508135018 | 11 | 271 | 16.1 | 22.5 | 320.42 | 0.00 | 0.00 | 42 | 1010.4 |
| 20260508134519 | 11 | 273 | 4.8 | 17.7 | 320.42 | 0.00 | 0.00 | 46 | 1010.4 |
| 20260508134018 | 11 | 284 | 9.7 | 17.7 | 320.42 | 0.00 | 0.00 | 46 | 1010.4 |
| 20260508133518 | 11 | 270 | 11.3 | 22.5 | 320.42 | 0.00 | 0.00 | 45 | 1010.5 |
| 20260508133019 | 11 | 249 | 8.0 | 19.3 | 320.42 | 0.00 | 0.00 | 45 | 1010.4 |
| 20260508132518 | 11 | 285 | 12.9 | 20.9 | 320.42 | 0.00 | 0.00 | 44 | 1010.4 |
| 20260508132018 | 11 | 271 | 9.7 | 20.9 | 320.42 | 0.00 | 0.00 | 46 | 1010.4 |
| 20260508131523 | 11 | 300 | 6.4 | 22.5 | 320.42 | 0.00 | 0.00 | 46 | 1010.3 |
| 20260508130518 | 11 | 256 | 4.8 | 20.9 | 320.42 | 0.00 | 0.00 | 48 | 1010.3 |
| 20260508130019 | 11 | 280 | 11.3 | 25.7 | 320.42 | 0.00 | 0.00 | 45 | 1010.5 |
| 20260508125518 | 11 | 293 | 16.1 | 17.7 | 320.42 | 0.00 | 0.00 | 45 | 1010.4 |
| 20260508124520 | 11 | 290 | 11.3 | 24.1 | 320.42 | 0.00 | 0.00 | 46 | 1010.3 |
| 20260508124018 | 10 | 300 | 4.8 | 16.1 | 320.42 | 0.00 | 0.00 | 50 | 1010.3 |
| 20260508123518 | 10 | 281 | 12.9 | 17.7 | 320.42 | 0.00 | 0.00 | 51 | 1010.4 |
| 20260508123051 | 10 | 285 | 4.8 | 11.3 | 320.42 | 0.00 | 0.00 | 55 | 1010.3 |
| 20260508123018 | 10 | 285 | 4.8 | 11.3 | 320.42 | 0.00 | 0.00 | 55 | 1010.3 |
| 20260508122518 | 10 | 309 | 6.4 | 17.7 | 320.42 | 0.00 | 0.00 | 54 | 1010.3 |
| 20260508122018 | 9 | 284 | 4.8 | 17.7 | 320.42 | 0.00 | 0.00 | 54 | 1010.3 |
| 20260508121519 | 8 | 273 | 6.4 | 11.3 | 320.42 | 0.00 | 0.00 | 56 | 1010.4 |
| 20260508121018 | 8 | 300 | 6.4 | 11.3 | 320.42 | 0.00 | 0.00 | 62 | 1010.3 |
| 20260508120518 | 8 | 281 | 4.8 | 14.5 | 320.42 | 0.00 | 0.00 | 59 | 1010.4 |
| 20260508120019 | 7 | 308 | 8.0 | 9.7 | 320.42 | 0.00 | 0.00 | 62 | 1010.5 |
| 20260508115518 | 7 | 273 | 4.8 | 8.0 | 320.42 | 0.00 | 0.00 | 64 | 1010.5 |
| 20260508115018 | 7 | 267 | 4.8 | 9.7 | 320.42 | 0.00 | 0.00 | 66 | 1010.5 |
| 20260508114518 | 6 | 271 | 3.2 | 9.7 | 320.42 | 0.00 | 0.00 | 68 | 1010.5 |
| 20260508114018 | 6 | 287 | 6.4 | 6.4 | 320.42 | 0.00 | 0.00 | 69 | 1010.4 |
| 20260508113518 | 5 | 250 | 4.8 | 8.0 | 320.42 | 0.00 | 0.00 | 73 | 1010.3 |
| 20260508113020 | 5 | 293 | 3.2 | 4.8 | 320.42 | 0.00 | 0.00 | 77 | 1010.4 |
| 20260508112518 | 5 | 280 | 3.2 | 4.8 | 320.42 | 0.00 | 0.00 | 78 | 1010.3 |
| 20260508112018 | 4 | 284 | 1.6 | 6.4 | 320.42 | 0.00 | 0.00 | 82 | 1010.3 |
| 20260508111551 | 3 | 300 | 3.2 | 8.0 | 320.42 | 0.00 | 0.00 | 84 | 1010.3 |
| 20260508111518 | 3 | 300 | 3.2 | 8.0 | 320.42 | 0.00 | 0.00 | 84 | 1010.3 |
| 20260508111018 | 3 | 284 | 4.8 | 8.0 | 320.42 | 0.00 | 0.00 | 86 | 1010.3 |
| 20260508110018 | 3 | 302 | 0.0 | 6.4 | 320.42 | 0.00 | 0.00 | 89 | 1010.3 |
| 20260508105518 | 2 | 262 | 3.2 | 6.4 | 320.42 | 0.00 | 0.00 | 89 | 1010.2 |
| 20260508105018 | 2 | 298 | 3.2 | 6.4 | 320.42 | 0.00 | 0.00 | 89 | 1010.2 |
| 20260508104518 | 2 | 281 | 3.2 | 4.8 | 320.42 | 0.00 | 0.00 | 91 | 1010.1 |
| 20260508103018 | 2 | 294 | 3.2 | 6.4 | 320.42 | 0.00 | 0.00 | 91 | 1010.1 |
| 20260508102518 | 2 | 288 | 1.6 | 6.4 | 320.42 | 0.00 | 0.00 | 91 | 1010.0 |
| 20260508102018 | 2 | 283 | 3.2 | 6.4 | 320.42 | 0.00 | 0.00 | 91 | 1010.0 |
| 20260508101518 | 2 | 300 | 4.8 | 8.0 | 320.42 | 0.00 | 0.00 | 92 | 1009.8 |
| 20260508101018 | 2 | 280 | 4.8 | 8.0 | 320.42 | 0.00 | 0.00 | 92 | 1009.8 |
| 20260508100518 | 2 | 288 | 3.2 | 8.0 | 320.42 | 0.00 | 0.00 | 92 | 1009.7 |
| 20260508100018 | 2 | 287 | 4.8 | 8.0 | 320.42 | 0.00 | 0.00 | 92 | 1009.7 |
| 20260508095518 | 2 | 281 | 3.2 | 4.8 | 320.42 | 0.00 | 0.00 | 92 | 1009.5 |
| 20260508095017 | 2 | 285 | 3.2 | 3.2 | 320.42 | 0.00 | 0.00 | 91 | 1009.5 |
| 20260508094518 | 2 | 277 | 3.2 | 4.8 | 320.42 | 0.00 | 0.00 | 91 | 1009.6 |
| 20260508094018 | 2 | 291 | 3.2 | 4.8 | 320.42 | 0.00 | 0.00 | 91 | 1009.6 |
| 20260508093018 | 2 | 281 | 1.6 | 3.2 | 320.42 | 0.00 | 0.00 | 90 | 1009.5 |
| 20260508092518 | 2 | 276 | 1.6 | 3.2 | 320.42 | 0.00 | 0.00 | 89 | 1009.5 |
| 20260508092018 | 2 | 274 | 1.6 | 3.2 | 320.42 | 0.00 | 0.00 | 89 | 1009.5 |
| 20260508091518 | 2 | 274 | 1.6 | 3.2 | 320.42 | 0.00 | 0.00 | 89 | 1009.6 |
| 20260508091018 | 2 | 278 | 1.6 | 3.2 | 320.42 | 0.00 | 0.00 | 89 | 1009.5 |
| 20260508090517 | 2 | 285 | 3.2 | 3.2 | 320.42 | 0.00 | 0.00 | 89 | 1009.4 |
| 20260508090018 | 2 | 263 | 1.6 | 3.2 | 320.42 | 0.00 | 0.00 | 89 | 1009.4 |
| 20260508085517 | 2 | 278 | 1.6 | 3.2 | 320.42 | 0.00 | 0.00 | 88 | 1009.3 |
| 20260508085017 | 2 | 297 | 3.2 | 3.2 | 320.42 | 0.00 | 0.00 | 88 | 1009.3 |
| 20260508084518 | 2 | 284 | 3.2 | 4.8 | 320.42 | 0.00 | 0.00 | 88 | 1009.3 |
| 20260508084017 | 2 | 280 | 1.6 | 6.4 | 320.42 | 0.00 | 0.00 | 88 | 1009.4 |
| 20260508083518 | 2 | 259 | 3.2 | 6.4 | 320.42 | 0.00 | 0.00 | 87 | 1009.4 |
| 20260508083018 | 2 | 280 | 3.2 | 3.2 | 320.42 | 0.00 | 0.00 | 87 | 1009.5 |
| 20260508082517 | 2 | 271 | 0.0 | 3.2 | 320.42 | 0.00 | 0.00 | 86 | 1009.3 |
| 20260508082017 | 2 | 264 | 1.6 | 3.2 | 320.42 | 0.00 | 0.00 | 86 | 1009.3 |
| 20260508081518 | 2 | 280 | 1.6 | 4.8 | 320.42 | 0.00 | 0.00 | 87 | 1009.2 |
| 20260508081017 | 2 | 293 | 3.2 | 4.8 | 320.42 | 0.00 | 0.00 | 87 | 1009.1 |
| 20260508080517 | 2 | 277 | 3.2 | 6.4 | 320.42 | 0.00 | 0.00 | 85 | 1009.1 |
| 20260508080020 | 2 | 271 | 3.2 | 6.4 | 320.42 | 0.00 | 0.00 | 84 | 1009.0 |
| 20260508075017 | 3 | 285 | 3.2 | 8.0 | 320.42 | 0.00 | 0.00 | 84 | 1008.9 |
| 20260508074518 | 3 | 295 | 3.2 | 4.8 | 320.42 | 0.00 | 0.00 | 84 | 1008.8 |
| 20260508074019 | 3 | 266 | 3.2 | 3.2 | 320.42 | 0.00 | 0.00 | 84 | 1008.7 |
| 20260508073517 | 3 | 288 | 1.6 | 3.2 | 320.42 | 0.00 | 0.00 | 83 | 1008.5 |
| 20260508073018 | 3 | 274 | 0.0 | 3.2 | 320.42 | 0.00 | 0.00 | 83 | 1008.5 |
| 20260508072518 | 3 | 304 | 0.0 | 4.8 | 320.42 | 0.00 | 0.00 | 82 | 1008.5 |
| 20260508071518 | 4 | 288 | 1.6 | 4.8 | 320.42 | 0.00 | 0.00 | 80 | 1008.4 |
| 20260508071017 | 4 | 291 | 1.6 | 4.8 | 320.42 | 0.00 | 0.00 | 80 | 1008.3 |
| 20260508070519 | 4 | 307 | 3.2 | 6.4 | 320.42 | 0.00 | 0.00 | 79 | 1008.3 |
| 20260508070018 | 4 | 294 | 1.6 | 4.8 | 320.42 | 0.00 | 0.00 | 80 | 1008.2 |
| 20260508065517 | 3 | 277 | 0.0 | 6.4 | 320.42 | 0.00 | 0.00 | 79 | 1008.2 |
| 20260508065017 | 3 | 300 | 3.2 | 6.4 | 320.42 | 0.00 | 0.00 | 80 | 1008.3 |
| 20260508064518 | 3 | 283 | 3.2 | 4.8 | 320.42 | 0.00 | 0.00 | 82 | 1008.3 |
| 20260508064017 | 3 | 326 | 3.2 | 4.8 | 320.42 | 0.00 | 0.00 | 83 | 1008.3 |
| 20260508063518 | 3 | 328 | 1.6 | 6.4 | 320.42 | 0.00 | 0.00 | 82 | 1008.4 |
| 20260508063021 | 3 | 293 | 3.2 | 4.8 | 320.42 | 0.00 | 0.00 | 83 | 1008.5 |
| 20260508062517 | 4 | 281 | 3.2 | 3.2 | 320.42 | 0.00 | 0.00 | 82 | 1008.5 |
| 20260508062017 | 4 | 297 | 0.0 | 4.8 | 320.42 | 0.00 | 0.00 | 81 | 1008.5 |
| 20260508061518 | 4 | 304 | 3.2 | 6.4 | 320.42 | 0.00 | 0.00 | 81 | 1008.5 |
| 20260508061017 | 4 | 309 | 4.8 | 8.0 | 320.42 | 0.00 | 0.00 | 80 | 1008.5 |
| 20260508060517 | 5 | 301 | 1.6 | 4.8 | 320.42 | 0.00 | 0.00 | 80 | 1008.5 |
| 20260508060057 | 5 | 271 | 3.2 | 4.8 | 320.42 | 0.00 | 0.00 | 77 | 1008.4 |
| 20260508060019 | 5 | 271 | 3.2 | 4.8 | 320.42 | 0.00 | 0.00 | 77 | 1008.4 |
| 20260508055517 | 5 | 281 | 0.0 | 3.2 | 320.42 | 0.00 | 0.00 | 77 | 1008.4 |
| 20260508055017 | 5 | 283 | 3.2 | 6.4 | 320.42 | 0.00 | 0.00 | 77 | 1008.5 |
| 20260508054520 | 5 | 290 | 4.8 | 8.0 | 320.42 | 0.00 | 0.00 | 76 | 1008.7 |
| 20260508054018 | 5 | 283 | 3.2 | 4.8 | 320.42 | 0.00 | 0.00 | 75 | 1008.7 |
| 20260508053517 | 5 | 301 | 3.2 | 3.2 | 320.42 | 0.00 | 0.00 | 75 | 1008.8 |
| 20260508053018 | 5 | 308 | 3.2 | 6.4 | 320.42 | 0.00 | 0.00 | 74 | 1008.8 |
| 20260508052517 | 6 | 301 | 3.2 | 3.2 | 320.42 | 0.00 | 0.00 | 72 | 1008.8 |
| 20260508052017 | 6 | 326 | 1.6 | 4.8 | 320.42 | 0.00 | 0.00 | 71 | 1008.8 |
| 20260508051519 | 6 | 297 | 3.2 | 4.8 | 320.42 | 0.00 | 0.00 | 70 | 1008.9 |
| 20260508051017 | 6 | 298 | 0.0 | 4.8 | 320.42 | 0.00 | 0.00 | 70 | 1008.9 |
| 20260508050018 | 6 | 274 | 3.2 | 8.0 | 320.42 | 0.00 | 0.00 | 70 | 1009.1 |
| 20260508045517 | 6 | 307 | 3.2 | 6.4 | 320.42 | 0.00 | 0.00 | 71 | 1009.1 |
| 20260508045017 | 6 | 319 | 1.6 | 8.0 | 320.42 | 0.00 | 0.00 | 71 | 1009.1 |
| 20260508044519 | 6 | 285 | 4.8 | 8.0 | 320.42 | 0.00 | 0.00 | 72 | 1009.1 |
| 20260508044017 | 6 | 319 | 3.2 | 4.8 | 320.42 | 0.00 | 0.00 | 73 | 1009.1 |
| 20260508043517 | 6 | 273 | 3.2 | 4.8 | 320.42 | 0.00 | 0.00 | 72 | 1009.1 |
| 20260508043018 | 6 | 298 | 1.6 | 4.8 | 320.42 | 0.00 | 0.00 | 71 | 1009.2 |
| 20260508042519 | 6 | 0 | 0.0 | 0.0 | 320.42 | 0.00 | 0.00 | 71 | 1009.2 |
| 20260508042017 | 6 | 294 | 0.0 | 3.2 | 320.42 | 0.00 | 0.00 | 70 | 1009.2 |
| 20260508041519 | 6 | 293 | 1.6 | 4.8 | 320.42 | 0.00 | 0.00 | 68 | 1009.2 |
| 20260508041017 | 7 | 291 | 1.6 | 3.2 | 320.42 | 0.00 | 0.00 | 67 | 1009.2 |
| 20260508040517 | 7 | 266 | 1.6 | 3.2 | 320.42 | 0.00 | 0.00 | 66 | 1009.2 |
| 20260508040018 | 7 | 274 | 0.0 | 3.2 | 320.42 | 0.00 | 0.00 | 64 | 1009.2 |
| 20260508035517 | 7 | 0 | 0.0 | 0.0 | 320.42 | 0.00 | 0.03 | 64 | 1009.1 |
| 20260508035017 | 7 | 304 | 0.0 | 6.4 | 320.42 | 0.00 | 0.03 | 63 | 1009.1 |
| 20260508034518 | 7 | 281 | 0.0 | 1.6 | 320.42 | 0.00 | 0.03 | 63 | 1009.1 |
| 20260508034018 | 7 | 0 | 0.0 | 0.0 | 320.42 | 0.00 | 0.03 | 62 | 1009.1 |
| 20260508033518 | 7 | 287 | 0.0 | 4.8 | 320.42 | 0.00 | 0.03 | 63 | 1009.1 |
| 20260508033018 | 7 | 264 | 3.2 | 6.4 | 320.42 | 0.00 | 0.03 | 63 | 1009.1 |
| 20260508032517 | 7 | 290 | 3.2 | 8.0 | 320.42 | 0.00 | 0.03 | 63 | 1009.2 |
| 20260508032017 | 7 | 294 | 1.6 | 8.0 | 320.42 | 0.00 | 0.03 | 64 | 1009.1 |
| 20260508031519 | 7 | 300 | 3.2 | 4.8 | 320.42 | 0.00 | 0.03 | 63 | 1009.2 |
| 20260508031017 | 7 | 270 | 3.2 | 11.3 | 320.42 | 0.00 | 0.03 | 64 | 1009.1 |
| 20260508030518 | 7 | 301 | 4.8 | 9.7 | 320.42 | 0.00 | 0.03 | 63 | 1009.0 |
| 20260508030018 | 7 | 294 | 3.2 | 8.0 | 320.42 | 0.00 | 0.03 | 64 | 1008.9 |
| 20260508025517 | 7 | 266 | 3.2 | 4.8 | 320.42 | 0.00 | 0.03 | 64 | 1009.0 |
| 20260508025017 | 7 | 276 | 1.6 | 8.0 | 320.42 | 0.00 | 0.03 | 64 | 1009.0 |
| 20260508024517 | 7 | 274 | 1.6 | 9.7 | 320.42 | 0.00 | 0.03 | 63 | 1008.9 |
| 20260508024017 | 7 | 301 | 3.2 | 6.4 | 320.42 | 0.00 | 0.03 | 63 | 1009.0 |
| 20260508023517 | 7 | 287 | 4.8 | 6.4 | 320.42 | 0.00 | 0.03 | 62 | 1009.0 |
| 20260508023018 | 7 | 280 | 3.2 | 6.4 | 320.42 | 0.00 | 0.03 | 64 | 1009.0 |
| 20260508022517 | 8 | 267 | 3.2 | 6.4 | 320.42 | 0.00 | 0.03 | 64 | 1008.9 |
| 20260508022017 | 8 | 314 | 3.2 | 6.4 | 320.42 | 0.00 | 0.03 | 65 | 1009.0 |
| 20260508021519 | 8 | 266 | 0.0 | 4.8 | 320.42 | 0.00 | 0.03 | 64 | 1008.9 |
| 20260508021017 | 8 | 295 | 1.6 | 8.0 | 320.42 | 0.00 | 0.03 | 63 | 1008.9 |
| 20260508020517 | 8 | 298 | 1.6 | 6.4 | 320.42 | 0.00 | 0.03 | 61 | 1009.0 |
| 20260508020017 | 8 | 284 | 1.6 | 4.8 | 320.42 | 0.00 | 0.03 | 62 | 1008.9 |
| 20260508015017 | 8 | 298 | 3.2 | 6.4 | 320.42 | 0.00 | 0.03 | 61 | 1008.9 |
| 20260508014518 | 8 | 284 | 3.2 | 4.8 | 320.42 | 0.00 | 0.03 | 61 | 1008.8 |
| 20260508014017 | 8 | 323 | 0.0 | 3.2 | 320.42 | 0.00 | 0.03 | 61 | 1008.8 |
| 20260508013517 | 8 | 287 | 1.6 | 9.7 | 320.42 | 0.00 | 0.03 | 60 | 1008.7 |
| 20260508013017 | 9 | 295 | 0.0 | 4.8 | 320.42 | 0.00 | 0.03 | 60 | 1008.6 |
| 20260508012517 | 9 | 281 | 0.0 | 4.8 | 320.42 | 0.00 | 0.03 | 59 | 1008.5 |
| 20260508012017 | 9 | 0 | 0.0 | 0.0 | 320.42 | 0.00 | 0.03 | 60 | 1008.4 |
| 20260508011517 | 10 | 294 | 0.0 | 4.8 | 320.42 | 0.00 | 0.03 | 58 | 1008.3 |
| 20260508011017 | 10 | 290 | 1.6 | 3.2 | 320.42 | 0.00 | 0.03 | 57 | 1008.3 |
| 20260508010517 | 10 | 277 | 0.0 | 4.8 | 320.42 | 0.00 | 0.03 | 57 | 1008.2 |
| 20260508010017 | 10 | 273 | 0.0 | 4.8 | 320.42 | 0.00 | 0.03 | 55 | 1008.1 |